sensor_id;sensor_type;location;lat;lon;timestamp;temperature;humidity
51765;DHT22;37835;53.256;6.456;2022-09-12T00:01:22;14.40;99.90
51765;DHT22;37835;53.256;6.456;2022-09-12T00:03:53;14.40;99.90
51765;DHT22;37835;53.256;6.456;2022-09-12T00:06:21;14.30;99.90
51765;DHT22;37835;53.256;6.456;2022-09-12T00:08:47;14.30;99.90
51765;DHT22;37835;53.256;6.456;2022-09-12T00:11:13;14.30;99.90
51765;DHT22;37835;53.256;6.456;2022-09-12T00:13:40;14.30;99.90
51765;DHT22;37835;53.256;6.456;2022-09-12T00:16:11;14.20;99.90
51765;DHT22;37835;53.256;6.456;2022-09-12T00:18:38;14.30;99.90
51765;DHT22;37835;53.256;6.456;2022-09-12T00:21:04;14.30;99.90
51765;DHT22;37835;53.256;6.456;2022-09-12T00:23:31;14.30;99.90
51765;DHT22;37835;53.256;6.456;2022-09-12T00:25:56;14.20;99.90
51765;DHT22;37835;53.256;6.456;2022-09-12T00:28:22;14.20;99.90
51765;DHT22;37835;53.256;6.456;2022-09-12T00:30:48;14.20;99.90
51765;DHT22;37835;53.256;6.456;2022-09-12T00:33:15;14.20;99.90
51765;DHT22;37835;53.256;6.456;2022-09-12T00:35:49;14.20;99.90
51765;DHT22;37835;53.256;6.456;2022-09-12T00:38:17;14.20;99.90
51765;DHT22;37835;53.256;6.456;2022-09-12T00:40:43;14.10;99.90
51765;DHT22;37835;53.256;6.456;2022-09-12T00:43:12;14.20;99.90
51765;DHT22;37835;53.256;6.456;2022-09-12T00:45:39;14.20;99.90
51765;DHT22;37835;53.256;6.456;2022-09-12T00:48:20;14.10;99.90
51765;DHT22;37835;53.256;6.456;2022-09-12T00:50:50;14.20;99.90
51765;DHT22;37835;53.256;6.456;2022-09-12T00:53:15;14.20;99.90
51765;DHT22;37835;53.256;6.456;2022-09-12T00:55:45;14.10;99.90
51765;DHT22;37835;53.256;6.456;2022-09-12T00:58:25;14.10;99.90
51765;DHT22;37835;53.256;6.456;2022-09-12T01:00:53;14.10;99.90
51765;DHT22;37835;53.256;6.456;2022-09-12T01:03:19;14.10;99.90
51765;DHT22;37835;53.256;6.456;2022-09-12T01:05:56;14.10;99.90
51765;DHT22;37835;53.256;6.456;2022-09-12T01:08:26;14.10;99.90
51765;DHT22;37835;53.256;6.456;2022-09-12T01:10:53;14.00;99.90
51765;DHT22;37835;53.256;6.456;2022-09-12T01:13:19;14.10;99.90
51765;DHT22;37835;53.256;6.456;2022-09-12T01:15:45;14.00;99.90
51765;DHT22;37835;53.256;6.456;2022-09-12T01:21:08;13.90;99.90
51765;DHT22;37835;53.256;6.456;2022-09-12T01:37:19;13.90;99.90
51765;DHT22;37835;53.256;6.456;2022-09-12T01:42:51;13.90;99.90
51765;DHT22;37835;53.256;6.456;2022-09-12T01:45:21;13.90;99.90
51765;DHT22;37835;53.256;6.456;2022-09-12T01:48:01;13.90;99.90
51765;DHT22;37835;53.256;6.456;2022-09-12T01:50:33;13.90;99.90
51765;DHT22;37835;53.256;6.456;2022-09-12T01:53:07;13.90;99.90
51765;DHT22;37835;53.256;6.456;2022-09-12T01:55:40;13.90;99.90
51765;DHT22;37835;53.256;6.456;2022-09-12T01:58:13;13.80;99.90
51765;DHT22;37835;53.256;6.456;2022-09-12T02:03:50;13.80;99.90
51765;DHT22;37835;53.256;6.456;2022-09-12T02:06:21;13.80;99.90
51765;DHT22;37835;53.256;6.456;2022-09-12T02:08:57;13.80;99.90
51765;DHT22;37835;53.256;6.456;2022-09-12T02:11:24;13.80;99.90
51765;DHT22;37835;53.256;6.456;2022-09-12T02:14:22;13.80;99.90
51765;DHT22;37835;53.256;6.456;2022-09-12T02:19:54;13.70;99.90
51765;DHT22;37835;53.256;6.456;2022-09-12T02:22:25;13.70;99.90
51765;DHT22;37835;53.256;6.456;2022-09-12T02:24:56;13.70;99.90
51765;DHT22;37835;53.256;6.456;2022-09-12T02:29:54;13.70;99.90
51765;DHT22;37835;53.256;6.456;2022-09-12T02:35:06;13.70;99.90
51765;DHT22;37835;53.256;6.456;2022-09-12T02:37:50;13.70;99.90
51765;DHT22;37835;53.256;6.456;2022-09-12T02:40:18;13.60;99.90
51765;DHT22;37835;53.256;6.456;2022-09-12T02:42:44;13.60;99.90
51765;DHT22;37835;53.256;6.456;2022-09-12T02:45:10;13.60;99.90
51765;DHT22;37835;53.256;6.456;2022-09-12T02:47:44;13.60;99.90
51765;DHT22;37835;53.256;6.456;2022-09-12T02:50:12;13.60;99.90
51765;DHT22;37835;53.256;6.456;2022-09-12T02:52:38;13.50;99.90
51765;DHT22;37835;53.256;6.456;2022-09-12T02:55:05;13.50;99.90
51765;DHT22;37835;53.256;6.456;2022-09-12T02:57:31;13.50;99.90
51765;DHT22;37835;53.256;6.456;2022-09-12T02:59:59;13.50;99.90
51765;DHT22;37835;53.256;6.456;2022-09-12T03:02:35;13.50;99.90
51765;DHT22;37835;53.256;6.456;2022-09-12T03:10:34;13.50;99.90
51765;DHT22;37835;53.256;6.456;2022-09-12T03:16:27;13.50;99.90
51765;DHT22;37835;53.256;6.456;2022-09-12T03:24:32;13.40;99.90
51765;DHT22;37835;53.256;6.456;2022-09-12T03:29:37;13.40;99.90
51765;DHT22;37835;53.256;6.456;2022-09-12T03:32:04;13.30;99.90
51765;DHT22;37835;53.256;6.456;2022-09-12T03:34:30;13.30;99.90
51765;DHT22;37835;53.256;6.456;2022-09-12T03:36:55;13.30;99.90
51765;DHT22;37835;53.256;6.456;2022-09-12T03:39:22;13.20;99.90
51765;DHT22;37835;53.256;6.456;2022-09-12T03:41:49;13.30;99.90
51765;DHT22;37835;53.256;6.456;2022-09-12T03:44:16;13.30;99.90
51765;DHT22;37835;53.256;6.456;2022-09-12T03:46:42;13.30;99.90
51765;DHT22;37835;53.256;6.456;2022-09-12T03:49:07;13.30;99.90
51765;DHT22;37835;53.256;6.456;2022-09-12T03:51:33;13.30;99.90
51765;DHT22;37835;53.256;6.456;2022-09-12T03:53:58;13.30;99.90
51765;DHT22;37835;53.256;6.456;2022-09-12T03:56:24;13.30;99.90
51765;DHT22;37835;53.256;6.456;2022-09-12T03:58:50;13.30;99.90
51765;DHT22;37835;53.256;6.456;2022-09-12T04:01:17;13.40;99.90
51765;DHT22;37835;53.256;6.456;2022-09-12T04:03:46;13.30;99.90
51765;DHT22;37835;53.256;6.456;2022-09-12T04:06:14;13.40;99.90
51765;DHT22;37835;53.256;6.456;2022-09-12T04:08:41;13.40;99.90
51765;DHT22;37835;53.256;6.456;2022-09-12T04:11:11;13.30;99.90
51765;DHT22;37835;53.256;6.456;2022-09-12T04:13:38;13.30;99.90
51765;DHT22;37835;53.256;6.456;2022-09-12T04:16:05;13.40;99.90
51765;DHT22;37835;53.256;6.456;2022-09-12T04:18:32;13.30;99.90
51765;DHT22;37835;53.256;6.456;2022-09-12T04:20:58;13.40;99.90
51765;DHT22;37835;53.256;6.456;2022-09-12T04:23:23;13.40;99.90
51765;DHT22;37835;53.256;6.456;2022-09-12T04:25:56;13.30;99.90
51765;DHT22;37835;53.256;6.456;2022-09-12T04:28:22;13.40;99.90
51765;DHT22;37835;53.256;6.456;2022-09-12T04:30:49;13.40;99.90
51765;DHT22;37835;53.256;6.456;2022-09-12T04:33:15;13.40;99.90
51765;DHT22;37835;53.256;6.456;2022-09-12T04:35:40;13.40;99.90
51765;DHT22;37835;53.256;6.456;2022-09-12T04:38:07;13.40;99.90
51765;DHT22;37835;53.256;6.456;2022-09-12T04:40:34;13.30;99.90
51765;DHT22;37835;53.256;6.456;2022-09-12T04:42:59;13.30;99.90
51765;DHT22;37835;53.256;6.456;2022-09-12T04:45:25;13.40;99.90
51765;DHT22;37835;53.256;6.456;2022-09-12T04:47:51;13.40;99.90
51765;DHT22;37835;53.256;6.456;2022-09-12T04:50:16;13.40;99.90
51765;DHT22;37835;53.256;6.456;2022-09-12T04:52:42;13.40;99.90
51765;DHT22;37835;53.256;6.456;2022-09-12T04:55:08;13.40;99.90
51765;DHT22;37835;53.256;6.456;2022-09-12T04:57:34;13.40;99.90
51765;DHT22;37835;53.256;6.456;2022-09-12T05:00:00;13.40;99.90
51765;DHT22;37835;53.256;6.456;2022-09-12T05:02:26;13.40;99.90
51765;DHT22;37835;53.256;6.456;2022-09-12T05:04:51;13.40;99.90
51765;DHT22;37835;53.256;6.456;2022-09-12T05:07:18;13.40;99.90
51765;DHT22;37835;53.256;6.456;2022-09-12T05:09:44;13.50;99.90
51765;DHT22;37835;53.256;6.456;2022-09-12T05:12:10;13.40;99.90
51765;DHT22;37835;53.256;6.456;2022-09-12T05:14:35;13.40;99.90
51765;DHT22;37835;53.256;6.456;2022-09-12T05:17:02;13.50;99.90
51765;DHT22;37835;53.256;6.456;2022-09-12T05:19:29;13.50;99.90
51765;DHT22;37835;53.256;6.456;2022-09-12T05:21:55;13.50;99.90
51765;DHT22;37835;53.256;6.456;2022-09-12T05:24:21;13.50;99.90
51765;DHT22;37835;53.256;6.456;2022-09-12T05:26:47;13.60;99.90
51765;DHT22;37835;53.256;6.456;2022-09-12T05:29:12;13.60;99.90
51765;DHT22;37835;53.256;6.456;2022-09-12T05:31:38;13.60;99.90
51765;DHT22;37835;53.256;6.456;2022-09-12T05:34:03;13.60;99.90
51765;DHT22;37835;53.256;6.456;2022-09-12T05:36:31;13.70;99.90
51765;DHT22;37835;53.256;6.456;2022-09-12T05:39:00;13.70;99.90
51765;DHT22;37835;53.256;6.456;2022-09-12T05:41:28;13.70;99.90
51765;DHT22;37835;53.256;6.456;2022-09-12T05:43:59;13.70;99.90
51765;DHT22;37835;53.256;6.456;2022-09-12T05:46:27;13.70;99.90
51765;DHT22;37835;53.256;6.456;2022-09-12T05:48:54;13.70;99.90
51765;DHT22;37835;53.256;6.456;2022-09-12T05:51:26;13.80;99.90
51765;DHT22;37835;53.256;6.456;2022-09-12T05:53:55;13.80;99.90
51765;DHT22;37835;53.256;6.456;2022-09-12T05:56:23;13.80;99.90
51765;DHT22;37835;53.256;6.456;2022-09-12T05:58:54;13.80;99.90
51765;DHT22;37835;53.256;6.456;2022-09-12T06:01:20;13.90;99.90
51765;DHT22;37835;53.256;6.456;2022-09-12T06:03:48;13.90;99.90
51765;DHT22;37835;53.256;6.456;2022-09-12T06:06:15;13.90;99.90
51765;DHT22;37835;53.256;6.456;2022-09-12T06:08:46;13.90;99.90
51765;DHT22;37835;53.256;6.456;2022-09-12T06:11:18;14.00;99.90
51765;DHT22;37835;53.256;6.456;2022-09-12T06:13:44;14.00;99.90
51765;DHT22;37835;53.256;6.456;2022-09-12T06:16:18;14.00;99.90
51765;DHT22;37835;53.256;6.456;2022-09-12T06:19:12;14.00;99.90
51765;DHT22;37835;53.256;6.456;2022-09-12T06:21:38;14.00;99.90
51765;DHT22;37835;53.256;6.456;2022-09-12T06:24:04;14.10;99.90
51765;DHT22;37835;53.256;6.456;2022-09-12T06:26:30;14.10;99.90
51765;DHT22;37835;53.256;6.456;2022-09-12T06:28:59;14.10;99.90
51765;DHT22;37835;53.256;6.456;2022-09-12T06:31:33;14.20;99.90
51765;DHT22;37835;53.256;6.456;2022-09-12T06:34:04;14.20;99.90
51765;DHT22;37835;53.256;6.456;2022-09-12T06:36:33;14.20;99.90
51765;DHT22;37835;53.256;6.456;2022-09-12T06:39:14;14.20;99.90
51765;DHT22;37835;53.256;6.456;2022-09-12T06:41:40;14.30;99.90
51765;DHT22;37835;53.256;6.456;2022-09-12T06:44:06;14.30;99.90
51765;DHT22;37835;53.256;6.456;2022-09-12T06:46:32;14.30;99.90
51765;DHT22;37835;53.256;6.456;2022-09-12T06:48:59;14.30;99.90
51765;DHT22;37835;53.256;6.456;2022-09-12T06:51:25;14.40;99.90
51765;DHT22;37835;53.256;6.456;2022-09-12T06:53:53;14.40;99.90
51765;DHT22;37835;53.256;6.456;2022-09-12T06:56:22;14.40;99.90
51765;DHT22;37835;53.256;6.456;2022-09-12T06:58:49;14.50;99.90
51765;DHT22;37835;53.256;6.456;2022-09-12T07:01:35;14.50;99.90
51765;DHT22;37835;53.256;6.456;2022-09-12T07:04:02;14.50;99.90
51765;DHT22;37835;53.256;6.456;2022-09-12T07:06:33;14.60;99.90
51765;DHT22;37835;53.256;6.456;2022-09-12T07:09:01;14.60;99.90
51765;DHT22;37835;53.256;6.456;2022-09-12T07:11:29;14.60;99.90
51765;DHT22;37835;53.256;6.456;2022-09-12T07:13:57;14.70;99.90
51765;DHT22;37835;53.256;6.456;2022-09-12T07:16:23;14.70;99.90
51765;DHT22;37835;53.256;6.456;2022-09-12T07:18:58;14.70;99.90
51765;DHT22;37835;53.256;6.456;2022-09-12T07:21:24;14.80;99.90
51765;DHT22;37835;53.256;6.456;2022-09-12T07:23:50;14.90;99.90
51765;DHT22;37835;53.256;6.456;2022-09-12T07:26:16;14.90;99.90
51765;DHT22;37835;53.256;6.456;2022-09-12T07:28:42;14.90;99.90
51765;DHT22;37835;53.256;6.456;2022-09-12T07:31:14;15.00;99.90
51765;DHT22;37835;53.256;6.456;2022-09-12T07:33:40;15.10;99.90
51765;DHT22;37835;53.256;6.456;2022-09-12T07:36:17;15.10;99.90
51765;DHT22;37835;53.256;6.456;2022-09-12T07:38:43;15.10;99.90
51765;DHT22;37835;53.256;6.456;2022-09-12T07:41:12;15.20;99.90
51765;DHT22;37835;53.256;6.456;2022-09-12T07:43:38;15.20;99.90
51765;DHT22;37835;53.256;6.456;2022-09-12T07:46:03;15.20;99.90
51765;DHT22;37835;53.256;6.456;2022-09-12T07:48:29;15.30;99.90
51765;DHT22;37835;53.256;6.456;2022-09-12T07:51:03;15.30;99.90
51765;DHT22;37835;53.256;6.456;2022-09-12T07:53:37;15.40;99.90
51765;DHT22;37835;53.256;6.456;2022-09-12T07:56:04;15.40;99.90
51765;DHT22;37835;53.256;6.456;2022-09-12T07:58:32;15.50;99.90
51765;DHT22;37835;53.256;6.456;2022-09-12T08:01:06;15.50;99.90
51765;DHT22;37835;53.256;6.456;2022-09-12T08:03:33;15.50;99.90
51765;DHT22;37835;53.256;6.456;2022-09-12T08:08:35;15.60;99.90
51765;DHT22;37835;53.256;6.456;2022-09-12T08:11:03;15.60;99.90
51765;DHT22;37835;53.256;6.456;2022-09-12T08:13:31;15.70;99.90
51765;DHT22;37835;53.256;6.456;2022-09-12T08:15:58;15.70;99.90
51765;DHT22;37835;53.256;6.456;2022-09-12T08:18:25;15.80;99.90
51765;DHT22;37835;53.256;6.456;2022-09-12T08:21:24;15.90;99.90
51765;DHT22;37835;53.256;6.456;2022-09-12T08:23:52;15.90;99.90
51765;DHT22;37835;53.256;6.456;2022-09-12T08:26:18;15.90;99.90
51765;DHT22;37835;53.256;6.456;2022-09-12T08:28:44;16.00;99.90
51765;DHT22;37835;53.256;6.456;2022-09-12T08:31:15;16.00;99.90
51765;DHT22;37835;53.256;6.456;2022-09-12T08:33:41;16.10;99.90
51765;DHT22;37835;53.256;6.456;2022-09-12T08:36:18;16.20;99.90
51765;DHT22;37835;53.256;6.456;2022-09-12T08:38:47;16.30;99.90
51765;DHT22;37835;53.256;6.456;2022-09-12T08:49:44;16.50;99.90
51765;DHT22;37835;53.256;6.456;2022-09-12T08:55:35;16.60;99.90
51765;DHT22;37835;53.256;6.456;2022-09-12T08:58:11;16.70;99.90
51765;DHT22;37835;53.256;6.456;2022-09-12T09:00:48;16.70;99.90
51765;DHT22;37835;53.256;6.456;2022-09-12T09:03:43;16.80;99.90
51765;DHT22;37835;53.256;6.456;2022-09-12T09:08:53;17.00;99.90
51765;DHT22;37835;53.256;6.456;2022-09-12T09:11:30;17.10;99.90
51765;DHT22;37835;53.256;6.456;2022-09-12T09:14:21;17.10;99.90
51765;DHT22;37835;53.256;6.456;2022-09-12T09:17:25;17.20;99.90
51765;DHT22;37835;53.256;6.456;2022-09-12T09:19:58;17.30;99.90
51765;DHT22;37835;53.256;6.456;2022-09-12T09:25:00;17.50;99.90
51765;DHT22;37835;53.256;6.456;2022-09-12T09:27:40;17.50;99.90
51765;DHT22;37835;53.256;6.456;2022-09-12T09:30:18;17.60;99.90
51765;DHT22;37835;53.256;6.456;2022-09-12T09:32:49;17.60;99.90
51765;DHT22;37835;53.256;6.456;2022-09-12T09:43:22;17.90;99.90
51765;DHT22;37835;53.256;6.456;2022-09-12T09:45:49;18.00;99.90
51765;DHT22;37835;53.256;6.456;2022-09-12T09:48:24;18.10;99.90
51765;DHT22;37835;53.256;6.456;2022-09-12T09:50:51;18.20;99.90
51765;DHT22;37835;53.256;6.456;2022-09-12T09:53:44;18.30;99.90
51765;DHT22;37835;53.256;6.456;2022-09-12T09:58:53;18.50;99.90
51765;DHT22;37835;53.256;6.456;2022-09-12T10:01:18;18.60;99.90
51765;DHT22;37835;53.256;6.456;2022-09-12T10:03:52;18.60;99.90
51765;DHT22;37835;53.256;6.456;2022-09-12T10:08:44;18.80;99.90
51765;DHT22;37835;53.256;6.456;2022-09-12T10:11:19;19.10;99.90
51765;DHT22;37835;53.256;6.456;2022-09-12T10:16:46;19.20;99.90
51765;DHT22;37835;53.256;6.456;2022-09-12T10:19:37;19.30;99.90
51765;DHT22;37835;53.256;6.456;2022-09-12T10:22:04;19.40;99.90
51765;DHT22;37835;53.256;6.456;2022-09-12T10:24:38;19.60;99.90
51765;DHT22;37835;53.256;6.456;2022-09-12T10:29:49;19.70;99.90
51765;DHT22;37835;53.256;6.456;2022-09-12T10:35:03;19.90;99.90
51765;DHT22;37835;53.256;6.456;2022-09-12T10:37:37;20.00;99.90
51765;DHT22;37835;53.256;6.456;2022-09-12T10:40:06;20.00;99.90
51765;DHT22;37835;53.256;6.456;2022-09-12T10:42:43;20.10;99.90
51765;DHT22;37835;53.256;6.456;2022-09-12T10:47:56;20.20;99.90
51765;DHT22;37835;53.256;6.456;2022-09-12T10:50:25;20.20;99.90
51765;DHT22;37835;53.256;6.456;2022-09-12T10:53:11;20.30;99.90
51765;DHT22;37835;53.256;6.456;2022-09-12T10:55:39;20.30;99.90
51765;DHT22;37835;53.256;6.456;2022-09-12T11:01:05;20.50;99.90
51765;DHT22;37835;53.256;6.456;2022-09-12T11:15:31;20.80;99.90
51765;DHT22;37835;53.256;6.456;2022-09-12T11:18:02;20.90;99.90
51765;DHT22;37835;53.256;6.456;2022-09-12T11:26:22;21.10;99.90
51765;DHT22;37835;53.256;6.456;2022-09-12T11:29:40;21.20;99.90
51765;DHT22;37835;53.256;6.456;2022-09-12T11:32:42;21.30;99.90
51765;DHT22;37835;53.256;6.456;2022-09-12T11:35:27;21.40;99.90
51765;DHT22;37835;53.256;6.456;2022-09-12T11:38:18;21.50;99.90
51765;DHT22;37835;53.256;6.456;2022-09-12T11:40:49;21.50;99.90
51765;DHT22;37835;53.256;6.456;2022-09-12T11:45:44;21.70;99.90
51765;DHT22;37835;53.256;6.456;2022-09-12T11:48:20;21.80;99.90
51765;DHT22;37835;53.256;6.456;2022-09-12T11:50:49;21.90;99.90
51765;DHT22;37835;53.256;6.456;2022-09-12T11:53:21;22.00;99.90
51765;DHT22;37835;53.256;6.456;2022-09-12T11:56:13;21.90;99.90
51765;DHT22;37835;53.256;6.456;2022-09-12T11:58:41;21.90;99.90
51765;DHT22;37835;53.256;6.456;2022-09-12T12:01:17;21.90;99.90
51765;DHT22;37835;53.256;6.456;2022-09-12T12:03:46;21.90;99.90
51765;DHT22;37835;53.256;6.456;2022-09-12T12:06:17;21.90;99.90
51765;DHT22;37835;53.256;6.456;2022-09-12T12:08:47;22.00;99.90
51765;DHT22;37835;53.256;6.456;2022-09-12T12:11:23;22.10;99.90
51765;DHT22;37835;53.256;6.456;2022-09-12T12:13:51;22.10;99.90
51765;DHT22;37835;53.256;6.456;2022-09-12T12:16:38;22.10;99.90
51765;DHT22;37835;53.256;6.456;2022-09-12T12:19:24;22.20;99.90
51765;DHT22;37835;53.256;6.456;2022-09-12T12:21:52;22.20;99.90
51765;DHT22;37835;53.256;6.456;2022-09-12T12:24:23;22.30;99.90
51765;DHT22;37835;53.256;6.456;2022-09-12T12:39:55;22.60;99.90
51765;DHT22;37835;53.256;6.456;2022-09-12T12:45:03;22.70;99.90
51765;DHT22;37835;53.256;6.456;2022-09-12T12:47:54;22.70;99.90
51765;DHT22;37835;53.256;6.456;2022-09-12T12:50:23;22.70;99.90
51765;DHT22;37835;53.256;6.456;2022-09-12T12:52:52;22.70;99.90
51765;DHT22;37835;53.256;6.456;2022-09-12T12:55:29;22.70;99.90
51765;DHT22;37835;53.256;6.456;2022-09-12T12:58:02;22.70;99.90
51765;DHT22;37835;53.256;6.456;2022-09-12T13:00:31;22.80;99.90
51765;DHT22;37835;53.256;6.456;2022-09-12T13:05:46;22.80;99.90
51765;DHT22;37835;53.256;6.456;2022-09-12T13:10:54;22.90;99.90
51765;DHT22;37835;53.256;6.456;2022-09-12T13:13:31;22.90;99.90
51765;DHT22;37835;53.256;6.456;2022-09-12T13:15:57;22.90;99.90
51765;DHT22;37835;53.256;6.456;2022-09-12T13:18:24;23.00;99.90
51765;DHT22;37835;53.256;6.456;2022-09-12T13:21:12;23.00;99.90
51765;DHT22;37835;53.256;6.456;2022-09-12T13:23:38;23.10;99.90
51765;DHT22;37835;53.256;6.456;2022-09-12T13:26:10;23.10;99.90
51765;DHT22;37835;53.256;6.456;2022-09-12T13:28:36;23.20;99.90
51765;DHT22;37835;53.256;6.456;2022-09-12T13:31:22;23.20;99.90
51765;DHT22;37835;53.256;6.456;2022-09-12T13:33:54;23.30;99.90
51765;DHT22;37835;53.256;6.456;2022-09-12T13:36:47;23.30;99.90
51765;DHT22;37835;53.256;6.456;2022-09-12T13:39:46;23.30;99.90
51765;DHT22;37835;53.256;6.456;2022-09-12T13:45:10;23.40;99.90
51765;DHT22;37835;53.256;6.456;2022-09-12T13:47:42;23.50;99.90
51765;DHT22;37835;53.256;6.456;2022-09-12T13:50:19;23.50;99.90
51765;DHT22;37835;53.256;6.456;2022-09-12T13:52:55;23.60;99.90
51765;DHT22;37835;53.256;6.456;2022-09-12T13:55:31;23.60;99.90
51765;DHT22;37835;53.256;6.456;2022-09-12T13:58:00;23.60;99.90
51765;DHT22;37835;53.256;6.456;2022-09-12T14:00:26;23.60;99.90
51765;DHT22;37835;53.256;6.456;2022-09-12T14:02:53;23.60;99.90
51765;DHT22;37835;53.256;6.456;2022-09-12T14:05:39;23.60;99.90
51765;DHT22;37835;53.256;6.456;2022-09-12T14:08:11;23.60;99.90
51765;DHT22;37835;53.256;6.456;2022-09-12T14:10:41;23.60;99.90
51765;DHT22;37835;53.256;6.456;2022-09-12T14:13:21;23.60;99.90
51765;DHT22;37835;53.256;6.456;2022-09-12T14:15:49;23.80;99.90
51765;DHT22;37835;53.256;6.456;2022-09-12T14:18:28;23.50;99.90
51765;DHT22;37835;53.256;6.456;2022-09-12T14:20:58;23.40;99.90
51765;DHT22;37835;53.256;6.456;2022-09-12T14:23:29;23.40;99.90
51765;DHT22;37835;53.256;6.456;2022-09-12T14:26:01;23.30;99.90
51765;DHT22;37835;53.256;6.456;2022-09-12T14:28:28;23.30;99.90
51765;DHT22;37835;53.256;6.456;2022-09-12T14:31:04;23.30;99.90
51765;DHT22;37835;53.256;6.456;2022-09-12T14:39:22;23.20;99.90
51765;DHT22;37835;53.256;6.456;2022-09-12T14:41:49;23.20;99.90
51765;DHT22;37835;53.256;6.456;2022-09-12T14:44:23;23.20;99.90
51765;DHT22;37835;53.256;6.456;2022-09-12T14:46:50;23.30;99.90
51765;DHT22;37835;53.256;6.456;2022-09-12T14:49:32;23.30;99.90
51765;DHT22;37835;53.256;6.456;2022-09-12T14:52:04;23.40;99.90
51765;DHT22;37835;53.256;6.456;2022-09-12T14:57:02;23.40;99.90
51765;DHT22;37835;53.256;6.456;2022-09-12T15:04:52;23.50;99.90
51765;DHT22;37835;53.256;6.456;2022-09-12T15:07:44;23.50;99.90
51765;DHT22;37835;53.256;6.456;2022-09-12T15:10:22;23.60;99.90
51765;DHT22;37835;53.256;6.456;2022-09-12T15:15:51;23.60;99.90
51765;DHT22;37835;53.256;6.456;2022-09-12T15:18:18;23.60;99.90
51765;DHT22;37835;53.256;6.456;2022-09-12T15:20:46;23.60;99.90
51765;DHT22;37835;53.256;6.456;2022-09-12T15:23:40;23.70;99.90
51765;DHT22;37835;53.256;6.456;2022-09-12T15:26:05;23.70;99.90
51765;DHT22;37835;53.256;6.456;2022-09-12T15:28:34;23.70;99.90
51765;DHT22;37835;53.256;6.456;2022-09-12T15:31:09;23.70;99.90
51765;DHT22;37835;53.256;6.456;2022-09-12T15:33:36;23.70;99.90
51765;DHT22;37835;53.256;6.456;2022-09-12T15:36:01;23.70;99.90
51765;DHT22;37835;53.256;6.456;2022-09-12T15:38:28;23.70;99.90
51765;DHT22;37835;53.256;6.456;2022-09-12T15:40:53;23.70;99.90
51765;DHT22;37835;53.256;6.456;2022-09-12T15:43:21;23.70;99.90
51765;DHT22;37835;53.256;6.456;2022-09-12T15:45:48;23.70;99.90
51765;DHT22;37835;53.256;6.456;2022-09-12T15:48:16;23.70;99.90
51765;DHT22;37835;53.256;6.456;2022-09-12T15:50:41;23.60;99.90
51765;DHT22;37835;53.256;6.456;2022-09-12T15:53:13;23.60;99.90
51765;DHT22;37835;53.256;6.456;2022-09-12T15:55:39;23.60;99.90
51765;DHT22;37835;53.256;6.456;2022-09-12T15:58:06;23.60;99.90
51765;DHT22;37835;53.256;6.456;2022-09-12T16:00:32;23.60;99.90
51765;DHT22;37835;53.256;6.456;2022-09-12T16:02:57;23.60;99.90
51765;DHT22;37835;53.256;6.456;2022-09-12T16:05:25;23.60;99.90
51765;DHT22;37835;53.256;6.456;2022-09-12T16:07:52;23.60;99.90
51765;DHT22;37835;53.256;6.456;2022-09-12T16:10:21;23.60;99.90
51765;DHT22;37835;53.256;6.456;2022-09-12T16:12:47;23.60;99.90
51765;DHT22;37835;53.256;6.456;2022-09-12T16:15:24;23.60;99.90
51765;DHT22;37835;53.256;6.456;2022-09-12T16:17:51;23.60;99.90
51765;DHT22;37835;53.256;6.456;2022-09-12T16:20:17;23.60;99.90
51765;DHT22;37835;53.256;6.456;2022-09-12T16:22:43;23.50;99.90
51765;DHT22;37835;53.256;6.456;2022-09-12T16:25:09;23.50;99.90
51765;DHT22;37835;53.256;6.456;2022-09-12T16:27:35;23.40;99.90
51765;DHT22;37835;53.256;6.456;2022-09-12T16:30:02;23.30;99.90
51765;DHT22;37835;53.256;6.456;2022-09-12T16:32:28;23.30;99.90
51765;DHT22;37835;53.256;6.456;2022-09-12T16:34:54;23.20;99.90
51765;DHT22;37835;53.256;6.456;2022-09-12T16:37:19;23.10;99.90
51765;DHT22;37835;53.256;6.456;2022-09-12T16:39:45;23.10;99.90
51765;DHT22;37835;53.256;6.456;2022-09-12T16:42:10;23.10;99.90
51765;DHT22;37835;53.256;6.456;2022-09-12T16:44:36;23.00;99.90
51765;DHT22;37835;53.256;6.456;2022-09-12T16:47:02;22.90;99.90
51765;DHT22;37835;53.256;6.456;2022-09-12T16:49:27;22.90;99.90
51765;DHT22;37835;53.256;6.456;2022-09-12T16:51:53;22.90;99.90
51765;DHT22;37835;53.256;6.456;2022-09-12T16:54:19;22.80;99.90
51765;DHT22;37835;53.256;6.456;2022-09-12T16:56:44;22.80;99.90
51765;DHT22;37835;53.256;6.456;2022-09-12T16:59:11;22.80;99.90
51765;DHT22;37835;53.256;6.456;2022-09-12T17:01:41;22.80;99.90
51765;DHT22;37835;53.256;6.456;2022-09-12T17:04:08;22.70;99.90
51765;DHT22;37835;53.256;6.456;2022-09-12T17:06:34;22.70;99.90
51765;DHT22;37835;53.256;6.456;2022-09-12T17:09:01;22.70;99.90
51765;DHT22;37835;53.256;6.456;2022-09-12T17:11:35;22.60;99.90
51765;DHT22;37835;53.256;6.456;2022-09-12T17:14:03;22.60;99.90
51765;DHT22;37835;53.256;6.456;2022-09-12T17:16:31;22.60;99.90
51765;DHT22;37835;53.256;6.456;2022-09-12T17:18:57;22.40;99.90
51765;DHT22;37835;53.256;6.456;2022-09-12T17:21:23;22.40;99.90
51765;DHT22;37835;53.256;6.456;2022-09-12T17:23:49;22.30;99.90
51765;DHT22;37835;53.256;6.456;2022-09-12T17:26:14;22.20;99.90
51765;DHT22;37835;53.256;6.456;2022-09-12T17:28:40;22.20;99.90
51765;DHT22;37835;53.256;6.456;2022-09-12T17:31:08;22.10;99.90
51765;DHT22;37835;53.256;6.456;2022-09-12T17:33:35;22.10;99.90
51765;DHT22;37835;53.256;6.456;2022-09-12T17:36:09;22.00;99.90
51765;DHT22;37835;53.256;6.456;2022-09-12T17:38:37;21.80;99.90
51765;DHT22;37835;53.256;6.456;2022-09-12T17:41:15;21.70;99.90
51765;DHT22;37835;53.256;6.456;2022-09-12T17:43:43;21.60;99.90
51765;DHT22;37835;53.256;6.456;2022-09-12T17:46:10;21.50;99.90
51765;DHT22;37835;53.256;6.456;2022-09-12T17:48:35;21.40;99.90
51765;DHT22;37835;53.256;6.456;2022-09-12T17:51:12;21.30;99.90
51765;DHT22;37835;53.256;6.456;2022-09-12T17:53:39;21.20;99.90
51765;DHT22;37835;53.256;6.456;2022-09-12T17:56:05;21.10;99.90
51765;DHT22;37835;53.256;6.456;2022-09-12T17:58:32;21.10;99.90
51765;DHT22;37835;53.256;6.456;2022-09-12T18:01:11;21.00;99.90
51765;DHT22;37835;53.256;6.456;2022-09-12T18:03:57;20.90;99.90
51765;DHT22;37835;53.256;6.456;2022-09-12T18:06:25;20.80;99.90
51765;DHT22;37835;53.256;6.456;2022-09-12T18:08:51;21.30;99.90
51765;DHT22;37835;53.256;6.456;2022-09-12T18:11:17;20.70;99.90
51765;DHT22;37835;53.256;6.456;2022-09-12T18:13:43;20.70;99.90
51765;DHT22;37835;53.256;6.456;2022-09-12T18:16:10;20.60;99.90
51765;DHT22;37835;53.256;6.456;2022-09-12T18:18:37;20.50;99.90
51765;DHT22;37835;53.256;6.456;2022-09-12T18:21:04;20.60;99.90
51765;DHT22;37835;53.256;6.456;2022-09-12T18:23:30;20.50;99.90
51765;DHT22;37835;53.256;6.456;2022-09-12T18:26:01;20.40;99.90